sensor_id;sensor_type;location;lat;lon;timestamp;pressure;altitude;pressure_sealevel;temperature
66113;BMP280;52893;52.870;5.822;2023-12-29T00:01:05;100055.53;;;10.07
66113;BMP280;52893;52.870;5.822;2023-12-29T00:03:34;100063.25;;;10.05
66113;BMP280;52893;52.870;5.822;2023-12-29T00:06:02;100077.34;;;10.07
66113;BMP280;52893;52.870;5.822;2023-12-29T00:08:31;100042.66;;;10.08
66113;BMP280;52893;52.870;5.822;2023-12-29T00:10:59;100069.72;;;10.13
66113;BMP280;52893;52.870;5.822;2023-12-29T00:13:26;100066.66;;;10.14
66113;BMP280;52893;52.870;5.822;2023-12-29T00:15:54;100069.81;;;10.16
66113;BMP280;52893;52.870;5.822;2023-12-29T00:18:21;100051.09;;;10.15
66113;BMP280;52893;52.870;5.822;2023-12-29T00:20:50;100058.00;;;10.12
66113;BMP280;52893;52.870;5.822;2023-12-29T00:23:18;100039.25;;;10.11
66113;BMP280;52893;52.870;5.822;2023-12-29T00:25:47;100050.09;;;10.07
66113;BMP280;52893;52.870;5.822;2023-12-29T00:28:14;100040.31;;;10.06
66113;BMP280;52893;52.870;5.822;2023-12-29T00:30:41;100020.59;;;10.01
66113;BMP280;52893;52.870;5.822;2023-12-29T00:33:09;100034.56;;;9.99
66113;BMP280;52893;52.870;5.822;2023-12-29T00:35:37;100025.50;;;9.95
66113;BMP280;52893;52.870;5.822;2023-12-29T00:38:05;100043.47;;;9.96
66113;BMP280;52893;52.870;5.822;2023-12-29T00:40:33;100045.06;;;9.97
66113;BMP280;52893;52.870;5.822;2023-12-29T00:43:02;100042.34;;;9.97
66113;BMP280;52893;52.870;5.822;2023-12-29T00:45:30;100025.97;;;9.97
66113;BMP280;52893;52.870;5.822;2023-12-29T00:47:59;99886.00;;;9.20
66113;BMP280;52893;52.870;5.822;2023-12-29T00:50:27;99891.56;;;9.24
66113;BMP280;52893;52.870;5.822;2023-12-29T00:52:54;99982.81;;;9.87
66113;BMP280;52893;52.870;5.822;2023-12-29T00:55:22;99978.22;;;9.91
66113;BMP280;52893;52.870;5.822;2023-12-29T00:57:50;99961.34;;;9.86
66113;BMP280;52893;52.870;5.822;2023-12-29T01:00:20;99968.47;;;9.90
66113;BMP280;52893;52.870;5.822;2023-12-29T01:02:47;99959.06;;;9.88
66113;BMP280;52893;52.870;5.822;2023-12-29T01:05:15;99959.88;;;9.88
66113;BMP280;52893;52.870;5.822;2023-12-29T01:07:43;99932.25;;;9.77
66113;BMP280;52893;52.870;5.822;2023-12-29T01:10:11;99939.66;;;9.89
66113;BMP280;52893;52.870;5.822;2023-12-29T01:12:40;99929.88;;;9.76
66113;BMP280;52893;52.870;5.822;2023-12-29T01:15:08;99945.63;;;9.82
66113;BMP280;52893;52.870;5.822;2023-12-29T01:17:38;99902.84;;;9.59
66113;BMP280;52893;52.870;5.822;2023-12-29T01:20:06;99948.97;;;9.88
66113;BMP280;52893;52.870;5.822;2023-12-29T01:22:34;99923.31;;;9.89
66113;BMP280;52893;52.870;5.822;2023-12-29T01:25:03;99935.09;;;9.93
66113;BMP280;52893;52.870;5.822;2023-12-29T01:27:31;99934.44;;;9.96
66113;BMP280;52893;52.870;5.822;2023-12-29T01:30:00;99914.34;;;9.89
66113;BMP280;52893;52.870;5.822;2023-12-29T01:32:27;99936.69;;;10.06
66113;BMP280;52893;52.870;5.822;2023-12-29T01:34:57;99933.25;;;10.09
66113;BMP280;52893;52.870;5.822;2023-12-29T01:37:24;99918.41;;;10.07
66113;BMP280;52893;52.870;5.822;2023-12-29T01:39:52;99892.41;;;9.97
66113;BMP280;52893;52.870;5.822;2023-12-29T01:42:19;99899.53;;;10.02
66113;BMP280;52893;52.870;5.822;2023-12-29T01:44:47;99899.47;;;9.98
66113;BMP280;52893;52.870;5.822;2023-12-29T01:47:18;99865.41;;;9.80
66113;BMP280;52893;52.870;5.822;2023-12-29T01:49:46;99885.81;;;9.98
66113;BMP280;52893;52.870;5.822;2023-12-29T01:52:17;99914.63;;;9.99
66113;BMP280;52893;52.870;5.822;2023-12-29T01:54:47;99921.47;;;10.05
66113;BMP280;52893;52.870;5.822;2023-12-29T01:57:16;99888.56;;;9.98
66113;BMP280;52893;52.870;5.822;2023-12-29T01:59:44;99920.22;;;10.03
66113;BMP280;52893;52.870;5.822;2023-12-29T02:02:13;99954.53;;;10.16
66113;BMP280;52893;52.870;5.822;2023-12-29T02:04:41;99944.75;;;10.15
66113;BMP280;52893;52.870;5.822;2023-12-29T02:07:09;99908.50;;;9.90
66113;BMP280;52893;52.870;5.822;2023-12-29T02:09:39;99963.91;;;10.18
66113;BMP280;52893;52.870;5.822;2023-12-29T02:12:07;99978.72;;;10.17
66113;BMP280;52893;52.870;5.822;2023-12-29T02:14:35;99974.38;;;10.16
66113;BMP280;52893;52.870;5.822;2023-12-29T02:17:10;99967.59;;;9.98
66113;BMP280;52893;52.870;5.822;2023-12-29T02:19:40;100014.38;;;10.24
66113;BMP280;52893;52.870;5.822;2023-12-29T02:22:08;99994.03;;;10.22
66113;BMP280;52893;52.870;5.822;2023-12-29T02:24:37;99998.25;;;10.19
66113;BMP280;52893;52.870;5.822;2023-12-29T02:27:18;100019.41;;;10.22
66113;BMP280;52893;52.870;5.822;2023-12-29T02:29:48;100015.72;;;10.18
66113;BMP280;52893;52.870;5.822;2023-12-29T02:32:20;100001.66;;;10.16
66113;BMP280;52893;52.870;5.822;2023-12-29T02:34:50;99959.59;;;10.30
66113;BMP280;52893;52.870;5.822;2023-12-29T02:37:19;99960.88;;;10.32
66113;BMP280;52893;52.870;5.822;2023-12-29T02:39:47;99963.47;;;10.29
66113;BMP280;52893;52.870;5.822;2023-12-29T02:42:16;99959.84;;;10.24
66113;BMP280;52893;52.870;5.822;2023-12-29T02:44:43;99965.28;;;10.24
66113;BMP280;52893;52.870;5.822;2023-12-29T02:47:11;99976.88;;;10.21
66113;BMP280;52893;52.870;5.822;2023-12-29T02:49:38;99989.63;;;10.17
66113;BMP280;52893;52.870;5.822;2023-12-29T02:52:06;99980.63;;;10.17
66113;BMP280;52893;52.870;5.822;2023-12-29T02:54:33;99936.34;;;9.84
66113;BMP280;52893;52.870;5.822;2023-12-29T02:57:00;99980.75;;;10.20
66113;BMP280;52893;52.870;5.822;2023-12-29T02:59:30;99971.22;;;10.27
66113;BMP280;52893;52.870;5.822;2023-12-29T03:01:58;100015.28;;;10.29
66113;BMP280;52893;52.870;5.822;2023-12-29T03:04:26;100020.72;;;10.29
66113;BMP280;52893;52.870;5.822;2023-12-29T03:06:54;100035.44;;;10.24
66113;BMP280;52893;52.870;5.822;2023-12-29T03:09:22;100025.97;;;10.21
66113;BMP280;52893;52.870;5.822;2023-12-29T03:11:49;100031.66;;;10.16
66113;BMP280;52893;52.870;5.822;2023-12-29T03:14:18;100029.38;;;10.18
66113;BMP280;52893;52.870;5.822;2023-12-29T03:16:49;100014.16;;;10.05
66113;BMP280;52893;52.870;5.822;2023-12-29T03:19:17;100032.56;;;10.20
66113;BMP280;52893;52.870;5.822;2023-12-29T03:21:44;100028.69;;;10.21
66113;BMP280;52893;52.870;5.822;2023-12-29T03:24:12;100035.28;;;10.20
66113;BMP280;52893;52.870;5.822;2023-12-29T03:26:39;100027.47;;;10.07
66113;BMP280;52893;52.870;5.822;2023-12-29T03:29:07;100064.25;;;10.25
66113;BMP280;52893;52.870;5.822;2023-12-29T03:31:35;100056.09;;;10.25
66113;BMP280;52893;52.870;5.822;2023-12-29T03:34:05;100021.44;;;10.25
66113;BMP280;52893;52.870;5.822;2023-12-29T03:36:32;100055.28;;;10.24
66113;BMP280;52893;52.870;5.822;2023-12-29T03:39:00;100066.19;;;10.24
66113;BMP280;52893;52.870;5.822;2023-12-29T03:41:29;100035.88;;;10.14
66113;BMP280;52893;52.870;5.822;2023-12-29T03:43:56;100045.03;;;10.09
66113;BMP280;52893;52.870;5.822;2023-12-29T03:46:25;100067.78;;;10.25
66113;BMP280;52893;52.870;5.822;2023-12-29T03:48:52;100052.88;;;10.11
66113;BMP280;52893;52.870;5.822;2023-12-29T03:51:22;100042.00;;;9.99
66113;BMP280;52893;52.870;5.822;2023-12-29T03:53:49;100086.88;;;10.25
66113;BMP280;52893;52.870;5.822;2023-12-29T03:56:18;100070.75;;;10.20
66113;BMP280;52893;52.870;5.822;2023-12-29T03:58:46;100069.38;;;10.14
66113;BMP280;52893;52.870;5.822;2023-12-29T04:01:15;100029.13;;;9.87
66113;BMP280;52893;52.870;5.822;2023-12-29T04:03:43;100046.97;;;10.09
66113;BMP280;52893;52.870;5.822;2023-12-29T04:06:11;100057.53;;;10.10
66113;BMP280;52893;52.870;5.822;2023-12-29T04:08:40;100056.09;;;10.13
66113;BMP280;52893;52.870;5.822;2023-12-29T04:11:07;100044.25;;;10.09
66113;BMP280;52893;52.870;5.822;2023-12-29T04:13:36;100020.59;;;10.01
66113;BMP280;52893;52.870;5.822;2023-12-29T04:16:04;100029.16;;;10.11
66113;BMP280;52893;52.870;5.822;2023-12-29T04:18:31;100036.19;;;10.12
66113;BMP280;52893;52.870;5.822;2023-12-29T04:20:59;100040.53;;;10.13
66113;BMP280;52893;52.870;5.822;2023-12-29T04:23:26;100052.69;;;10.16
66113;BMP280;52893;52.870;5.822;2023-12-29T04:25:55;100062.81;;;10.15
66113;BMP280;52893;52.870;5.822;2023-12-29T04:28:23;100074.94;;;10.18
66113;BMP280;52893;52.870;5.822;2023-12-29T04:30:51;100023.97;;;9.73
66113;BMP280;52893;52.870;5.822;2023-12-29T04:33:18;100094.13;;;10.09
66113;BMP280;52893;52.870;5.822;2023-12-29T04:35:45;100100.50;;;10.13
66113;BMP280;52893;52.870;5.822;2023-12-29T04:38:13;100041.16;;;9.86
66113;BMP280;52893;52.870;5.822;2023-12-29T04:40:40;100112.22;;;10.14
66113;BMP280;52893;52.870;5.822;2023-12-29T04:43:09;99907.91;;;8.91
66113;BMP280;52893;52.870;5.822;2023-12-29T04:45:37;100099.66;;;10.01
66113;BMP280;52893;52.870;5.822;2023-12-29T04:48:04;100126.97;;;10.13
66113;BMP280;52893;52.870;5.822;2023-12-29T04:50:32;100135.38;;;10.20
66113;BMP280;52893;52.870;5.822;2023-12-29T04:52:59;100147.91;;;10.21
66113;BMP280;52893;52.870;5.822;2023-12-29T04:55:27;100131.16;;;10.10
66113;BMP280;52893;52.870;5.822;2023-12-29T04:57:54;100150.16;;;10.19
66113;BMP280;52893;52.870;5.822;2023-12-29T05:00:23;100141.66;;;10.20
66113;BMP280;52893;52.870;5.822;2023-12-29T05:02:51;100127.31;;;10.11
66113;BMP280;52893;52.870;5.822;2023-12-29T05:05:18;100139.16;;;10.15
66113;BMP280;52893;52.870;5.822;2023-12-29T05:07:46;100134.38;;;10.12
66113;BMP280;52893;52.870;5.822;2023-12-29T05:10:13;100142.56;;;10.24
66113;BMP280;52893;52.870;5.822;2023-12-29T05:12:41;100139.81;;;10.24
66113;BMP280;52893;52.870;5.822;2023-12-29T05:15:09;100140.31;;;10.27
66113;BMP280;52893;52.870;5.822;2023-12-29T05:17:38;100129.03;;;10.28
66113;BMP280;52893;52.870;5.822;2023-12-29T05:20:07;100121.44;;;10.21
66113;BMP280;52893;52.870;5.822;2023-12-29T05:22:35;100100.47;;;10.01
66113;BMP280;52893;52.870;5.822;2023-12-29T05:25:03;100127.09;;;10.16
66113;BMP280;52893;52.870;5.822;2023-12-29T05:27:31;100133.13;;;10.22
66113;BMP280;52893;52.870;5.822;2023-12-29T05:29:59;100089.34;;;9.94
66113;BMP280;52893;52.870;5.822;2023-12-29T05:32:26;100133.94;;;10.22
66113;BMP280;52893;52.870;5.822;2023-12-29T05:34:55;100118.38;;;10.23
66113;BMP280;52893;52.870;5.822;2023-12-29T05:37:23;100121.44;;;10.21
66113;BMP280;52893;52.870;5.822;2023-12-29T05:39:50;100089.38;;;10.06
66113;BMP280;52893;52.870;5.822;2023-12-29T05:42:18;100095.97;;;10.17
66113;BMP280;52893;52.870;5.822;2023-12-29T05:44:45;100070.38;;;10.10
66113;BMP280;52893;52.870;5.822;2023-12-29T05:47:13;100111.00;;;10.36
66113;BMP280;52893;52.870;5.822;2023-12-29T05:49:41;100067.69;;;10.22
66113;BMP280;52893;52.870;5.822;2023-12-29T05:52:10;100113.03;;;10.27
66113;BMP280;52893;52.870;5.822;2023-12-29T05:54:37;100108.00;;;10.16
66113;BMP280;52893;52.870;5.822;2023-12-29T05:57:05;100110.63;;;10.25
66113;BMP280;52893;52.870;5.822;2023-12-29T05:59:33;100116.44;;;10.23
66113;BMP280;52893;52.870;5.822;2023-12-29T06:02:01;100122.34;;;10.25
66113;BMP280;52893;52.870;5.822;2023-12-29T06:04:28;100103.69;;;10.27
66113;BMP280;52893;52.870;5.822;2023-12-29T06:06:56;100099.59;;;10.21
66113;BMP280;52893;52.870;5.822;2023-12-29T06:09:25;100090.25;;;10.10
66113;BMP280;52893;52.870;5.822;2023-12-29T06:11:53;100035.81;;;9.77
66113;BMP280;52893;52.870;5.822;2023-12-29T06:14:21;100123.25;;;10.30
66113;BMP280;52893;52.870;5.822;2023-12-29T06:16:48;100095.97;;;10.30
66113;BMP280;52893;52.870;5.822;2023-12-29T06:19:16;100096.56;;;10.23
66113;BMP280;52893;52.870;5.822;2023-12-29T06:21:44;100112.44;;;10.33
66113;BMP280;52893;52.870;5.822;2023-12-29T06:24:11;100107.56;;;10.27
66113;BMP280;52893;52.870;5.822;2023-12-29T06:26:41;100102.13;;;10.27
66113;BMP280;52893;52.870;5.822;2023-12-29T06:29:10;99986.19;;;9.60
66113;BMP280;52893;52.870;5.822;2023-12-29T06:31:40;100109.41;;;10.35
66113;BMP280;52893;52.870;5.822;2023-12-29T06:34:07;100069.38;;;10.14
66113;BMP280;52893;52.870;5.822;2023-12-29T06:36:35;100109.94;;;10.28
66113;BMP280;52893;52.870;5.822;2023-12-29T06:39:02;100113.03;;;10.27
66113;BMP280;52893;52.870;5.822;2023-12-29T06:41:30;100103.59;;;10.24
66113;BMP280;52893;52.870;5.822;2023-12-29T06:44:00;100096.78;;;10.30
66113;BMP280;52893;52.870;5.822;2023-12-29T06:46:27;100015.63;;;9.78
66113;BMP280;52893;52.870;5.822;2023-12-29T06:48:55;100083.91;;;10.18
66113;BMP280;52893;52.870;5.822;2023-12-29T06:51:23;100110.88;;;10.32
66113;BMP280;52893;52.870;5.822;2023-12-29T06:53:51;100090.63;;;10.33
66113;BMP280;52893;52.870;5.822;2023-12-29T06:56:18;100114.38;;;10.33
66113;BMP280;52893;52.870;5.822;2023-12-29T06:58:46;100058.25;;;10.07
66113;BMP280;52893;52.870;5.822;2023-12-29T07:01:15;100090.31;;;10.22
66113;BMP280;52893;52.870;5.822;2023-12-29T07:03:43;100116.66;;;10.43
66113;BMP280;52893;52.870;5.822;2023-12-29T07:06:11;100129.97;;;10.44
66113;BMP280;52893;52.870;5.822;2023-12-29T07:08:39;100121.78;;;10.44
66113;BMP280;52893;52.870;5.822;2023-12-29T07:11:09;100115.06;;;10.42
66113;BMP280;52893;52.870;5.822;2023-12-29T07:13:37;100112.00;;;10.43
66113;BMP280;52893;52.870;5.822;2023-12-29T07:16:06;100113.28;;;10.46
66113;BMP280;52893;52.870;5.822;2023-12-29T07:18:35;100110.56;;;10.46
66113;BMP280;52893;52.870;5.822;2023-12-29T07:21:03;100115.66;;;10.47
66113;BMP280;52893;52.870;5.822;2023-12-29T07:23:31;100116.56;;;10.51
66113;BMP280;52893;52.870;5.822;2023-12-29T07:25:58;100109.38;;;10.59
66113;BMP280;52893;52.870;5.822;2023-12-29T07:28:27;100120.28;;;10.59
66113;BMP280;52893;52.870;5.822;2023-12-29T07:30:56;100120.28;;;10.59
66113;BMP280;52893;52.870;5.822;2023-12-29T07:33:23;100118.03;;;10.61
66113;BMP280;52893;52.870;5.822;2023-12-29T07:35:52;100115.97;;;10.58
66113;BMP280;52893;52.870;5.822;2023-12-29T07:38:20;100124.41;;;10.65
66113;BMP280;52893;52.870;5.822;2023-12-29T07:40:47;100086.22;;;10.41
66113;BMP280;52893;52.870;5.822;2023-12-29T07:43:15;100062.78;;;10.27
66113;BMP280;52893;52.870;5.822;2023-12-29T07:45:43;100103.06;;;10.55
66113;BMP280;52893;52.870;5.822;2023-12-29T07:48:11;100121.66;;;10.65
66113;BMP280;52893;52.870;5.822;2023-12-29T07:50:39;100111.91;;;10.64
66113;BMP280;52893;52.870;5.822;2023-12-29T07:53:08;100131.91;;;10.68
66113;BMP280;52893;52.870;5.822;2023-12-29T07:55:37;100130.44;;;10.70
66113;BMP280;52893;52.870;5.822;2023-12-29T07:58:06;100090.28;;;10.47
66113;BMP280;52893;52.870;5.822;2023-12-29T08:00:36;100132.22;;;10.66
66113;BMP280;52893;52.870;5.822;2023-12-29T08:03:04;100136.44;;;10.76
66113;BMP280;52893;52.870;5.822;2023-12-29T08:05:34;100087.13;;;10.45
66113;BMP280;52893;52.870;5.822;2023-12-29T08:08:05;100132.84;;;10.72
66113;BMP280;52893;52.870;5.822;2023-12-29T08:10:35;100018.69;;;10.01
66113;BMP280;52893;52.870;5.822;2023-12-29T08:13:05;100113.25;;;10.58
66113;BMP280;52893;52.870;5.822;2023-12-29T08:15:35;100123.28;;;10.54
66113;BMP280;52893;52.870;5.822;2023-12-29T08:18:03;100137.47;;;10.59
66113;BMP280;52893;52.870;5.822;2023-12-29T08:20:31;100129.28;;;10.59
66113;BMP280;52893;52.870;5.822;2023-12-29T08:22:58;100138.97;;;10.57
66113;BMP280;52893;52.870;5.822;2023-12-29T08:25:29;100088.47;;;10.51
66113;BMP280;52893;52.870;5.822;2023-12-29T08:27:58;100068.78;;;10.09
66113;BMP280;52893;52.870;5.822;2023-12-29T08:30:25;100087.34;;;10.15
66113;BMP280;52893;52.870;5.822;2023-12-29T08:32:53;100111.44;;;10.25
66113;BMP280;52893;52.870;5.822;2023-12-29T08:35:20;100081.19;;;10.06
66113;BMP280;52893;52.870;5.822;2023-12-29T08:37:48;100086.06;;;10.13
66113;BMP280;52893;52.870;5.822;2023-12-29T08:40:15;100107.47;;;10.23
66113;BMP280;52893;52.870;5.822;2023-12-29T08:42:43;100063.25;;;10.05
66113;BMP280;52893;52.870;5.822;2023-12-29T08:45:12;100103.13;;;10.22
66113;BMP280;52893;52.870;5.822;2023-12-29T08:47:39;100104.59;;;10.19
66113;BMP280;52893;52.870;5.822;2023-12-29T08:50:07;100105.72;;;10.18
66113;BMP280;52893;52.870;5.822;2023-12-29T08:52:35;100106.19;;;10.20
66113;BMP280;52893;52.870;5.822;2023-12-29T08:55:03;100055.59;;;9.87
66113;BMP280;52893;52.870;5.822;2023-12-29T08:57:31;100097.09;;;10.16
66113;BMP280;52893;52.870;5.822;2023-12-29T08:59:59;100117.00;;;10.29
66113;BMP280;52893;52.870;5.822;2023-12-29T09:02:28;100100.75;;;10.33
66113;BMP280;52893;52.870;5.822;2023-12-29T09:04:56;100069.38;;;10.27
66113;BMP280;52893;52.870;5.822;2023-12-29T09:07:24;100084.03;;;10.46
66113;BMP280;52893;52.870;5.822;2023-12-29T09:09:52;100121.44;;;10.58
66113;BMP280;52893;52.870;5.822;2023-12-29T09:12:20;100078.25;;;10.36
66113;BMP280;52893;52.870;5.822;2023-12-29T09:14:47;100046.19;;;10.20
66113;BMP280;52893;52.870;5.822;2023-12-29T09:17:15;100099.25;;;10.59
66113;BMP280;52893;52.870;5.822;2023-12-29T09:19:44;100062.91;;;10.43
66113;BMP280;52893;52.870;5.822;2023-12-29T09:22:13;100102.00;;;10.72
66113;BMP280;52893;52.870;5.822;2023-12-29T09:24:41;100069.03;;;10.52
66113;BMP280;52893;52.870;5.822;2023-12-29T09:27:09;100082.91;;;10.59
66113;BMP280;52893;52.870;5.822;2023-12-29T09:29:36;100115.31;;;10.73
66113;BMP280;52893;52.870;5.822;2023-12-29T09:32:04;100119.88;;;10.81
66113;BMP280;52893;52.870;5.822;2023-12-29T09:34:32;100115.53;;;10.80
66113;BMP280;52893;52.870;5.822;2023-12-29T09:37:01;100112.34;;;10.78
66113;BMP280;52893;52.870;5.822;2023-12-29T09:39:29;100112.81;;;10.80
66113;BMP280;52893;52.870;5.822;2023-12-29T09:41:58;100045.63;;;10.51
66113;BMP280;52893;52.870;5.822;2023-12-29T09:44:29;100088.25;;;10.56
66113;BMP280;52893;52.870;5.822;2023-12-29T09:47:02;100014.16;;;10.05
66113;BMP280;52893;52.870;5.822;2023-12-29T09:49:36;100104.63;;;10.56
66113;BMP280;52893;52.870;5.822;2023-12-29T09:52:07;100136.88;;;10.66
66113;BMP280;52893;52.870;5.822;2023-12-29T09:54:36;100118.25;;;10.44
66113;BMP280;52893;52.870;5.822;2023-12-29T09:57:05;100171.97;;;10.64
66113;BMP280;52893;52.870;5.822;2023-12-29T09:59:34;100127.81;;;10.38
66113;BMP280;52893;52.870;5.822;2023-12-29T10:02:04;100144.78;;;10.55
66113;BMP280;52893;52.870;5.822;2023-12-29T10:04:32;100159.44;;;10.63
66113;BMP280;52893;52.870;5.822;2023-12-29T10:07:02;100145.91;;;10.54
66113;BMP280;52893;52.870;5.822;2023-12-29T10:09:37;100161.69;;;10.61
66113;BMP280;52893;52.870;5.822;2023-12-29T10:12:08;100165.22;;;10.61
66113;BMP280;52893;52.870;5.822;2023-12-29T10:14:39;100161.03;;;10.64
66113;BMP280;52893;52.870;5.822;2023-12-29T10:17:12;100139.41;;;10.47
66113;BMP280;52893;52.870;5.822;2023-12-29T10:19:49;100145.09;;;10.54
66113;BMP280;52893;52.870;5.822;2023-12-29T10:22:26;100160.31;;;10.67
66113;BMP280;52893;52.870;5.822;2023-12-29T10:24:59;100162.84;;;10.72
66113;BMP280;52893;52.870;5.822;2023-12-29T10:27:27;100156.47;;;10.68
66113;BMP280;52893;52.870;5.822;2023-12-29T10:29:54;100161.13;;;10.67
66113;BMP280;52893;52.870;5.822;2023-12-29T10:32:22;100160.19;;;10.76
66113;BMP280;52893;52.870;5.822;2023-12-29T10:34:49;100180.13;;;10.88
66113;BMP280;52893;52.870;5.822;2023-12-29T10:37:22;100194.00;;;10.95
66113;BMP280;52893;52.870;5.822;2023-12-29T10:39:55;100153.63;;;10.77
66113;BMP280;52893;52.870;5.822;2023-12-29T10:42:28;100176.69;;;11.03
66113;BMP280;52893;52.870;5.822;2023-12-29T10:45:05;100216.97;;;11.06
66113;BMP280;52893;52.870;5.822;2023-12-29T10:47:33;100214.94;;;11.03
66113;BMP280;52893;52.870;5.822;2023-12-29T10:50:02;100217.44;;;11.08
66113;BMP280;52893;52.870;5.822;2023-12-29T10:52:32;100234.38;;;11.14
66113;BMP280;52893;52.870;5.822;2023-12-29T10:55:07;100206.53;;;10.96
66113;BMP280;52893;52.870;5.822;2023-12-29T10:57:37;100113.59;;;10.32
66113;BMP280;52893;52.870;5.822;2023-12-29T11:00:07;100228.16;;;10.89
66113;BMP280;52893;52.870;5.822;2023-12-29T11:02:35;100207.19;;;10.69
66113;BMP280;52893;52.870;5.822;2023-12-29T11:05:04;100233.47;;;10.86
66113;BMP280;52893;52.870;5.822;2023-12-29T11:07:37;100177.72;;;10.50
66113;BMP280;52893;52.870;5.822;2023-12-29T11:10:06;100235.88;;;10.87
66113;BMP280;52893;52.870;5.822;2023-12-29T11:12:35;100216.28;;;10.61
66113;BMP280;52893;52.870;5.822;2023-12-29T11:15:06;100220.22;;;10.39
66113;BMP280;52893;52.870;5.822;2023-12-29T11:17:35;100203.25;;;10.21
66113;BMP280;52893;52.870;5.822;2023-12-29T11:20:04;100187.34;;;10.23
66113;BMP280;52893;52.870;5.822;2023-12-29T11:22:32;100160.34;;;10.10
66113;BMP280;52893;52.870;5.822;2023-12-29T11:25:00;100145.53;;;9.87
66113;BMP280;52893;52.870;5.822;2023-12-29T11:27:29;100212.06;;;10.18
66113;BMP280;52893;52.870;5.822;2023-12-29T11:29:58;100218.69;;;10.17
66113;BMP280;52893;52.870;5.822;2023-12-29T11:32:34;100212.31;;;10.13
66113;BMP280;52893;52.870;5.822;2023-12-29T11:35:13;100219.38;;;10.14
66113;BMP280;52893;52.870;5.822;2023-12-29T11:37:58;100211.38;;;10.09
66113;BMP280;52893;52.870;5.822;2023-12-29T11:40:35;100104.94;;;9.40
66113;BMP280;52893;52.870;5.822;2023-12-29T11:43:18;100216.16;;;10.12
66113;BMP280;52893;52.870;5.822;2023-12-29T11:45:48;100020.09;;;8.76
66113;BMP280;52893;52.870;5.822;2023-12-29T11:48:54;100120.94;;;9.42
66113;BMP280;52893;52.870;5.822;2023-12-29T11:51:29;100084.28;;;9.18
66113;BMP280;52893;52.870;5.822;2023-12-29T11:53:57;100229.75;;;10.00
66113;BMP280;52893;52.870;5.822;2023-12-29T11:56:30;100144.00;;;9.44
66113;BMP280;52893;52.870;5.822;2023-12-29T11:59:18;100142.59;;;9.38
66113;BMP280;52893;52.870;5.822;2023-12-29T12:01:58;100058.91;;;8.85
66113;BMP280;52893;52.870;5.822;2023-12-29T12:04:39;100052.25;;;8.74
66113;BMP280;52893;52.870;5.822;2023-12-29T12:07:10;100070.44;;;8.82
66113;BMP280;52893;52.870;5.822;2023-12-29T12:09:40;100245.44;;;10.03
66113;BMP280;52893;52.870;5.822;2023-12-29T12:12:08;100196.69;;;9.69
66113;BMP280;52893;52.870;5.822;2023-12-29T12:14:57;100122.22;;;9.23
66113;BMP280;52893;52.870;5.822;2023-12-29T12:17:29;100158.53;;;9.48
66113;BMP280;52893;52.870;5.822;2023-12-29T12:20:09;100232.44;;;9.88
66113;BMP280;52893;52.870;5.822;2023-12-29T12:22:39;100133.25;;;9.27
66113;BMP280;52893;52.870;5.822;2023-12-29T12:25:11;100216.09;;;9.88
66113;BMP280;52893;52.870;5.822;2023-12-29T12:27:40;100262.34;;;9.97
66113;BMP280;52893;52.870;5.822;2023-12-29T12:30:09;100273.75;;;10.11
66113;BMP280;52893;52.870;5.822;2023-12-29T12:32:37;100255.47;;;9.91
66113;BMP280;52893;52.870;5.822;2023-12-29T12:35:14;100277.53;;;10.06
66113;BMP280;52893;52.870;5.822;2023-12-29T12:37:43;100148.59;;;9.31
66113;BMP280;52893;52.870;5.822;2023-12-29T12:40:11;100259.63;;;9.97
66113;BMP280;52893;52.870;5.822;2023-12-29T12:42:51;100222.13;;;9.73
66113;BMP280;52893;52.870;5.822;2023-12-29T12:45:20;100297.19;;;10.12
66113;BMP280;52893;52.870;5.822;2023-12-29T12:47:52;100292.78;;;10.19
66113;BMP280;52893;52.870;5.822;2023-12-29T12:50:23;100295.16;;;10.21
66113;BMP280;52893;52.870;5.822;2023-12-29T12:52:50;100300.06;;;10.27
66113;BMP280;52893;52.870;5.822;2023-12-29T12:55:18;100296.22;;;10.29
66113;BMP280;52893;52.870;5.822;2023-12-29T12:57:46;100301.91;;;10.23
66113;BMP280;52893;52.870;5.822;2023-12-29T13:00:14;100293.25;;;10.21
66113;BMP280;52893;52.870;5.822;2023-12-29T13:02:44;100289.59;;;10.17
66113;BMP280;52893;52.870;5.822;2023-12-29T13:05:12;100297.06;;;10.08
66113;BMP280;52893;52.870;5.822;2023-12-29T13:07:43;100292.91;;;10.02
66113;BMP280;52893;52.870;5.822;2023-12-29T13:10:11;100257.16;;;9.83
66113;BMP280;52893;52.870;5.822;2023-12-29T13:12:38;100051.41;;;8.53
66113;BMP280;52893;52.870;5.822;2023-12-29T13:15:07;100284.50;;;9.95
66113;BMP280;52893;52.870;5.822;2023-12-29T13:17:35;100173.28;;;9.26
66113;BMP280;52893;52.870;5.822;2023-12-29T13:20:03;100262.53;;;9.71
66113;BMP280;52893;52.870;5.822;2023-12-29T13:22:32;100248.63;;;9.64
66113;BMP280;52893;52.870;5.822;2023-12-29T13:25:05;100182.34;;;9.10
66113;BMP280;52893;52.870;5.822;2023-12-29T13:27:33;100297.88;;;9.88
66113;BMP280;52893;52.870;5.822;2023-12-29T13:30:00;100305.56;;;9.86
66113;BMP280;52893;52.870;5.822;2023-12-29T13:32:29;100302.19;;;9.89
66113;BMP280;52893;52.870;5.822;2023-12-29T13:35:05;100270.53;;;9.76
66113;BMP280;52893;52.870;5.822;2023-12-29T13:37:37;100302.63;;;9.91
66113;BMP280;52893;52.870;5.822;2023-12-29T13:40:14;100295.78;;;9.85
66113;BMP280;52893;52.870;5.822;2023-12-29T13:42:45;100290.97;;;9.82
66113;BMP280;52893;52.870;5.822;2023-12-29T13:45:15;100274.97;;;9.80
66113;BMP280;52893;52.870;5.822;2023-12-29T13:47:45;100264.28;;;9.75
66113;BMP280;52893;52.870;5.822;2023-12-29T13:50:13;100267.47;;;9.77
66113;BMP280;52893;52.870;5.822;2023-12-29T13:52:42;100268.13;;;9.74
66113;BMP280;52893;52.870;5.822;2023-12-29T13:55:20;100270.53;;;9.76
66113;BMP280;52893;52.870;5.822;2023-12-29T13:57:49;100257.50;;;9.61
66113;BMP280;52893;52.870;5.822;2023-12-29T14:00:17;100271.66;;;9.75
66113;BMP280;52893;52.870;5.822;2023-12-29T14:02:48;100278.69;;;9.76
66113;BMP280;52893;52.870;5.822;2023-12-29T14:05:28;100276.50;;;9.69
66113;BMP280;52893;52.870;5.822;2023-12-29T14:08:00;100285.59;;;9.73
66113;BMP280;52893;52.870;5.822;2023-12-29T14:10:34;100292.88;;;9.69
66113;BMP280;52893;52.870;5.822;2023-12-29T14:13:07;100287.25;;;9.66